Time;durP1;ratioP1;P1;durP2;ratioP2;P2;SDS_P1;SDS_P2;PMS_P1;PMS_P2;Temp;Humidity;BMP_temperature;BMP_pressure;BME280_temperature;BME280_humidity;BME280_pressure;Samples;Min_cycle;Max_cycle;Signal;HPM_P1;HPM_P2
2021/07/01 16:14:45;;;;;;;;;;;;;;;;;;5016607;28;55107;-49
2021/07/01 16:17:10;;;;;;;;;;;;;;;;;;4998133;28;20000;-49
2021/07/01 16:19:35;;;;;;;;;;;;;;;;;;5009887;28;19966;-50
2021/07/01 16:22:01;;;;;;;;;;;;;;;;;;5017851;28;19917;-51
2021/07/01 16:24:27;;;;;;;;;;;;;;;;;;5015664;28;19921;-58
2021/07/01 16:26:52;;;;;;;;;;;;;;;;;;5016834;28;19914;-49
2021/07/01 16:29:17;;;;;;;;;;;;;;;;;;5012139;28;19924;-48
2021/07/01 16:31:44;;;;;;;;;;;;;;;;;;5016810;28;19913;-48
2021/07/01 16:34:09;;;;;;;;;;;;;;;;;;5014954;28;19925;-47
2021/07/01 16:36:34;;;;;;;;;;;;;;;;;;5015888;28;19917;-49
2021/07/01 16:39:00;;;;;;;;;;;;;;;;;;5016978;28;19976;-51
2021/07/01 16:41:25;;;;;;;;;;;;;;;;;;5015588;28;20005;-48
2021/07/01 16:43:50;;;;;;;;;;;;;;;;;;5016121;28;19913;-49
2021/07/01 16:46:15;;;;;;;;;;;;;;;;;;5014458;28;19933;-48
2021/07/01 16:48:40;;;;;;;;;;;;;;;;;;5015781;28;19967;-49
2021/07/01 16:51:05;;;;;;;;;;;;;;;;;;5014455;28;20024;-50
2021/07/01 16:53:30;;;;;;;;;;;;;;;;;;5038402;22;19930;-89
2021/07/01 16:55:56;;;;;;;;;;;;;;;;;;5021622;28;19917;-87
2021/07/01 16:58:22;;;;;;;;;;;;;;;;;;5020990;28;19913;-87
2021/07/01 17:00:47;;;;;;;;;;;;;;;;;;5023572;28;20340;-87
2021/07/01 17:03:12;;;;;;;;;;;;;;;;;;5019946;28;19919;-88
2021/07/01 17:05:37;;;;;;;;;;;;;;;;;;5019789;28;20032;-87
2021/07/01 17:08:02;;;;;;;;;;;;;;;;;;5022476;28;19921;-87
2021/07/01 17:10:27;;;;;;;;;;;;;;;;;;5023342;28;19917;-87
2021/07/01 17:12:52;;;;;;;;;;;;;;;;;;5022122;28;19960;-87
2021/07/01 17:15:18;;;;;;;;;;;;;;;;;;5023821;28;19924;-88
2021/07/01 17:17:43;;;;;;;;;;;;;;;;;;5022482;28;19913;-87
2021/07/01 17:20:09;;;;;;;;;;;;;;;;;;5024916;28;19940;-87
2021/07/01 17:22:34;;;;;;;;;;;;;;;;;;5022069;28;19991;-86
2021/07/01 17:24:59;;;;;;;;;;;;;;;;;;5017116;28;19913;-87
2021/07/01 17:27:25;;;;;;;;;;;;;;;;;;5007045;28;19926;-87
2021/07/01 17:29:50;;;;;;;;;;;;;;;;;;5011245;28;20364;-87
2021/07/01 17:32:17;;;;;;;;;;;;;;;;;;5010308;28;19910;-87
2021/07/01 17:34:43;;;;;;;;;;;;;;;;;;5006519;28;19971;-88
2021/07/01 17:37:08;;;;;;;;;;;;;;;;;;5009714;28;19917;-87
2021/07/01 17:39:33;;;;;;;;;;;;;;;;;;5008636;28;20165;-87
2021/07/01 17:41:58;;;;;;;;;;;;;;;;;;5009482;28;19910;-87
2021/07/01 17:44:23;;;;;;;;;;;;;;;;;;5010035;28;20381;-88
2021/07/01 17:46:49;;;;;;;;;;;;;;;;;;5009572;28;20013;-87
2021/07/01 17:49:16;;;;;;;;;;;;;;;;;;5008335;28;19922;-88
2021/07/01 17:51:41;;;;;;;;;;;;;;;;;;5009304;28;19909;-87
2021/07/01 17:54:06;;;;;;;;;;;;;;;;;;5009087;28;20471;-87
2021/07/01 17:56:31;;;;;;;;;;;;;;;;;;5007920;28;19913;-88
2021/07/01 17:58:56;;;;;;;;;;;;;;;;;;5009655;28;20362;-88
2021/07/01 18:01:21;;;;;;;;;;;;;;;;;;5009853;28;19925;-87
2021/07/01 18:03:46;;;;;;;;;;;;;;;;;;5009187;28;20396;-88
2021/07/01 18:06:15;;;;;;;;;;;;;;;;;;5005201;22;19934;-46
2021/07/01 18:08:40;;;;;;;;;;;;;;;;;;4970769;28;19920;-46
2021/07/01 18:11:05;;;;;;;;;;;;;;;;;;4971274;28;19914;-46
2021/07/01 18:13:30;;;;;;;;;;;;;;;;;;4977123;28;20305;-46
2021/07/01 18:15:55;;;;;;;;;;;;;;;;;;4990314;28;19969;-48
2021/07/01 18:18:20;;;;;;;;;;;;;;;;;;4989141;28;19918;-46
2021/07/01 18:20:46;;;;;;;;;;;;;;;;;;5014698;23;20029;-46
2021/07/01 18:23:11;;;;;;;;;;;;;;;;;;4988310;28;19920;-46
2021/07/01 18:25:36;;;;;;;;;;;;;;;;;;4988327;28;19914;-47
2021/07/01 18:28:01;;;;;;;;;;;;;;;;;;4990453;28;19913;-47
2021/07/01 18:30:26;;;;;;;;;;;;;;;;;;4988617;28;19918;-47
2021/07/01 18:32:51;;;;;;;;;;;;;;;;;;4988530;28;20048;-47
2021/07/01 18:35:16;;;;;;;;;;;;;;;;;;4988150;28;20236;-45
2021/07/01 18:37:41;;;;;;;;;;;;;;;;;;4989986;28;19914;-47
2021/07/01 18:40:06;;;;;;;;;;;;;;;;;;4990222;28;19915;-47
2021/07/01 18:42:31;;;;;;;;;;;;;;;;;;4988358;28;19918;-48
2021/07/01 18:44:59;;;;;;;;;;;;;;;;;;4990540;28;20429;-47
2021/07/01 18:47:25;;;;;;;;;;;;;;;;;;4985717;28;19914;-47
2021/07/01 18:49:50;;;;;;;;;;;;;;;;;;4988959;28;19914;-48
2021/07/01 18:52:15;;;;;;;;;;;;;;;;;;4989086;28;20313;-48
2021/07/01 18:54:40;;;;;;;;;;;;;;;;;;4986336;28;20353;-47
2021/07/01 18:57:05;;;;;;;;;;;;;;;;;;4990717;28;19910;-48
2021/07/01 18:59:30;;;;;;;;;;;;;;;;;;4990198;28;19965;-47
2021/07/01 19:01:57;;;;;;;;;;;;;;;;;;4989371;28;19914;-47
2021/07/01 19:04:22;;;;;;;;;;;;;;;;;;4986327;28;19914;-47
2021/07/01 19:06:47;;;;;;;;;;;;;;;;;;4988716;28;19914;-46
2021/07/01 19:09:12;;;;;;;;;;;;;;;;;;4989113;28;19910;-47
2021/07/01 19:11:37;;;;;;;;;;;;;;;;;;4990193;28;20350;-47
2021/07/01 19:14:03;;;;;;;;;;;;;;;;;;4986831;28;19969;-48
2021/07/01 19:16:29;;;;;;;;;;;;;;;;;;4988415;28;19921;-47
2021/07/01 19:18:54;;;;;;;;;;;;;;;;;;4982846;28;19914;-46
2021/07/01 19:21:19;;;;;;;;;;;;;;;;;;4986200;28;19917;-47
2021/07/01 19:23:45;;;;;;;;;;;;;;;;;;4989056;28;20052;-48
2021/07/01 19:26:11;;;;;;;;;;;;;;;;;;4988432;28;19910;-46
2021/07/01 19:28:36;;;;;;;;;;;;;;;;;;4987939;28;19914;-47
2021/07/01 19:31:01;;;;;;;;;;;;;;;;;;4990088;28;19921;-47
2021/07/01 19:33:26;;;;;;;;;;;;;;;;;;4985907;28;19936;-44
2021/07/01 19:35:51;;;;;;;;;;;;;;;;;;4985419;28;19914;-47
2021/07/01 19:38:17;;;;;;;;;;;;;;;;;;4987621;28;19917;-47
2021/07/01 19:40:42;;;;;;;;;;;;;;;;;;4985612;28;20346;-47
2021/07/01 19:43:07;;;;;;;;;;;;;;;;;;4988467;28;20354;-48
2021/07/01 19:45:32;;;;;;;;;;;;;;;;;;4987083;28;19910;-48
2021/07/01 19:47:57;;;;;;;;;;;;;;;;;;4986784;28;19929;-48
2021/07/01 19:50:23;;;;;;;;;;;;;;;;;;4984873;28;20405;-47
2021/07/01 19:52:48;;;;;;;;;;;;;;;;;;4988120;28;19914;-47
2021/07/01 19:55:13;;;;;;;;;;;;;;;;;;4986267;28;19910;-48
2021/07/01 19:57:38;;;;;;;;;;;;;;;;;;4986972;28;19929;-46
2021/07/01 20:00:03;;;;;;;;;;;;;;;;;;4987549;28;19926;-49
2021/07/01 20:02:28;;;;;;;;;;;;;;;;;;4987173;28;19910;-46
2021/07/01 20:04:53;;;;;;;;;;;;;;;;;;4987106;28;20622;-48
2021/07/01 20:07:19;;;;;;;;;;;;;;;;;;4987496;28;19914;-48
2021/07/01 20:09:44;;;;;;;;;;;;;;;;;;4988524;28;19910;-47
2021/07/01 20:12:09;;;;;;;;;;;;;;;;;;4988587;28;19910;-47
2021/07/01 20:14:34;;;;;;;;;;;;;;;;;;4988101;28;20350;-47
2021/07/01 20:16:59;;;;;;;;;;;;;;;;;;4987963;28;19920;-48
2021/07/01 20:19:24;;;;;;;;;;;;;;;;;;4986583;28;19914;-47
2021/07/01 20:21:49;;;;;;;;;;;;;;;;;;4987727;28;19921;-47
2021/07/01 20:24:16;;;;;;;;;;;;;;;;;;4987703;28;19910;-48
2021/07/01 20:26:41;;;;;;;;;;;;;;;;;;4986309;28;19953;-48
2021/07/01 20:29:06;;;;;;;;;;;;;;;;;;4987685;28;19917;-47
2021/07/01 20:31:34;;;;;;;;;;;;;;;;;;4985426;28;19944;-48
2021/07/01 20:33:59;;;;;;;;;;;;;;;;;;4986263;28;19922;-47
2021/07/01 20:36:24;;;;;;;;;;;;;;;;;;4988099;28;19921;-47
2021/07/01 20:38:49;;;;;;;;;;;;;;;;;;4988892;28;20382;-48
2021/07/01 20:41:14;;;;;;;;;;;;;;;;;;4984563;28;19924;-47
2021/07/01 20:43:39;;;;;;;;;;;;;;;;;;4989236;28;19910;-48
2021/07/01 20:46:04;;;;;;;;;;;;;;;;;;4987669;28;20321;-46
2021/07/01 20:48:29;;;;;;;;;;;;;;;;;;4987280;28;19914;-48
2021/07/01 20:50:54;;;;;;;;;;;;;;;;;;4987005;28;19914;-48
2021/07/01 20:53:22;;;;;;;;;;;;;;;;;;4987434;28;19918;-48
2021/07/01 20:55:47;;;;;;;;;;;;;;;;;;4988725;28;19920;-46
2021/07/01 20:58:13;;;;;;;;;;;;;;;;;;4986087;28;20441;-47
2021/07/01 21:00:38;;;;;;;;;;;;;;;;;;4989672;28;20270;-47
2021/07/01 21:03:03;;;;;;;;;;;;;;;;;;4987963;28;19917;-47
2021/07/01 21:05:28;;;;;;;;;;;;;;;;;;4986443;28;19991;-47
2021/07/01 21:07:54;;;;;;;;;;;;;;;;;;4985119;28;19933;-46
2021/07/01 21:10:19;;;;;;;;;;;;;;;;;;4986841;28;19917;-47
2021/07/01 21:12:44;;;;;;;;;;;;;;;;;;4983758;28;19941;-47
2021/07/01 21:15:09;;;;;;;;;;;;;;;;;;4986410;28;20275;-48
2021/07/01 21:17:34;;;;;;;;;;;;;;;;;;4987221;28;19910;-47
2021/07/01 21:19:59;;;;;;;;;;;;;;;;;;4989460;28;19922;-47
2021/07/01 21:22:24;;;;;;;;;;;;;;;;;;4990849;28;19920;-48
2021/07/01 21:24:49;;;;;;;;;;;;;;;;;;4990737;28;20000;-46
2021/07/01 21:27:15;;;;;;;;;;;;;;;;;;4990832;28;19917;-48
2021/07/01 21:29:40;;;;;;;;;;;;;;;;;;4990808;28;19909;-47
2021/07/01 21:32:05;;;;;;;;;;;;;;;;;;4990142;28;20492;-48
2021/07/01 21:34:30;;;;;;;;;;;;;;;;;;4986548;28;20358;-47
2021/07/01 21:36:55;;;;;;;;;;;;;;;;;;4990142;28;19921;-44
2021/07/01 21:39:20;;;;;;;;;;;;;;;;;;4988982;28;20016;-46
2021/07/01 21:41:45;;;;;;;;;;;;;;;;;;4991184;28;19910;-48
2021/07/01 21:44:10;;;;;;;;;;;;;;;;;;4986405;28;19972;-48
2021/07/01 21:46:35;;;;;;;;;;;;;;;;;;4991848;28;19924;-47
2021/07/01 21:49:01;;;;;;;;;;;;;;;;;;4987569;28;19917;-49
2021/07/01 21:51:26;;;;;;;;;;;;;;;;;;4990281;28;19921;-47
2021/07/01 21:53:52;;;;;;;;;;;;;;;;;;4989474;28;19972;-48
2021/07/01 21:56:18;;;;;;;;;;;;;;;;;;4987885;28;19914;-47
2021/07/01 21:58:43;;;;;;;;;;;;;;;;;;4990049;28;19917;-47
2021/07/01 22:01:08;;;;;;;;;;;;;;;;;;4987951;28;20020;-47
2021/07/01 22:03:33;;;;;;;;;;;;;;;;;;4987935;28;19925;-46
2021/07/01 22:05:58;;;;;;;;;;;;;;;;;;4989716;28;19966;-48
2021/07/01 22:08:23;;;;;;;;;;;;;;;;;;4991718;28;19910;-48
2021/07/01 22:10:48;;;;;;;;;;;;;;;;;;4988191;28;19991;-47
2021/07/01 22:13:13;;;;;;;;;;;;;;;;;;4989424;28;19914;-48
2021/07/01 22:18:03;;;;;;;;;;;;;;;;;;4989034;28;20008;-48
2021/07/01 22:20:29;;;;;;;;;;;;;;;;;;4988288;28;20289;-48
2021/07/01 22:22:55;;;;;;;;;;;;;;;;;;4990433;28;19909;-48
2021/07/01 22:25:20;;;;;;;;;;;;;;;;;;4988737;28;20386;-47
2021/07/01 22:27:45;;;;;;;;;;;;;;;;;;4988070;28;20293;-47
2021/07/01 22:30:10;;;;;;;;;;;;;;;;;;4987281;28;19910;-46
2021/07/01 22:32:35;;;;;;;;;;;;;;;;;;4988691;28;20382;-46
2021/07/01 22:35:00;;;;;;;;;;;;;;;;;;4987088;28;20284;-46
2021/07/01 22:37:25;;;;;;;;;;;;;;;;;;4991209;28;19910;-46
2021/07/01 22:39:50;;;;;;;;;;;;;;;;;;4988524;28;19910;-47
2021/07/01 22:42:15;;;;;;;;;;;;;;;;;;4988764;28;19921;-50
2021/07/01 22:44:41;;;;;;;;;;;;;;;;;;4987945;28;19914;-47
2021/07/01 22:47:06;;;;;;;;;;;;;;;;;;4989014;28;19909;-47
2021/07/01 22:49:31;;;;;;;;;;;;;;;;;;4988672;28;20437;-48
2021/07/01 22:51:56;;;;;;;;;;;;;;;;;;4987298;28;20336;-47
2021/07/01 22:54:21;;;;;;;;;;;;;;;;;;4989774;28;19925;-47
2021/07/01 22:56:46;;;;;;;;;;;;;;;;;;4987367;28;19914;-47
2021/07/01 22:59:11;;;;;;;;;;;;;;;;;;4989594;28;19919;-47
2021/07/01 23:01:36;;;;;;;;;;;;;;;;;;4987131;28;19917;-49
2021/07/01 23:04:01;;;;;;;;;;;;;;;;;;4988397;28;20352;-48
2021/07/01 23:06:27;;;;;;;;;;;;;;;;;;4988646;28;19968;-47
2021/07/01 23:08:52;;;;;;;;;;;;;;;;;;4990255;28;19968;-47
2021/07/01 23:11:17;;;;;;;;;;;;;;;;;;4986146;28;19917;-48
2021/07/01 23:13:42;;;;;;;;;;;;;;;;;;4988306;28;19945;-48
2021/07/01 23:16:07;;;;;;;;;;;;;;;;;;4985682;28;19957;-48
2021/07/01 23:18:32;;;;;;;;;;;;;;;;;;4987728;28;19913;-46
2021/07/01 23:20:57;;;;;;;;;;;;;;;;;;4988482;28;20456;-47
2021/07/01 23:23:22;;;;;;;;;;;;;;;;;;4926607;28;20386;-47
2021/07/01 23:25:48;;;;;;;;;;;;;;;;;;4990063;28;20370;-48
2021/07/01 23:28:13;;;;;;;;;;;;;;;;;;4987106;28;19921;-47
2021/07/01 23:30:38;;;;;;;;;;;;;;;;;;4989429;28;19910;-48
2021/07/01 23:33:03;;;;;;;;;;;;;;;;;;4987875;28;20004;-46
2021/07/01 23:35:28;;;;;;;;;;;;;;;;;;4990687;28;19910;-47
2021/07/01 23:37:53;;;;;;;;;;;;;;;;;;4989137;28;20398;-48
2021/07/01 23:40:19;;;;;;;;;;;;;;;;;;4989766;28;19917;-47
2021/07/01 23:42:44;;;;;;;;;;;;;;;;;;4988025;28;19917;-48
2021/07/01 23:45:09;;;;;;;;;;;;;;;;;;4990255;28;19940;-47
2021/07/01 23:47:34;;;;;;;;;;;;;;;;;;4986641;28;20293;-46
2021/07/01 23:49:59;;;;;;;;;;;;;;;;;;4988953;28;20511;-47
2021/07/01 23:52:24;;;;;;;;;;;;;;;;;;4989639;28;19945;-47
2021/07/01 23:54:49;;;;;;;;;;;;;;;;;;4989178;28;20389;-47
2021/07/01 23:57:14;;;;;;;;;;;;;;;;;;4987991;28;20244;-47
2021/07/01 23:59:39;;;;;;;;;;;;;;;;;;4989873;28;20286;-48
